Time,TemperatureF,DewpointF,PressureIn,WindDirection,WindDirectionDegrees,WindSpeedMPH,WindSpeedGustMPH,Humidity,HourlyPrecipIn,Conditions,Clouds,dailyrainin,SoftwareType,DateUTC
2013-09-28 00:00:00,64.1,59.2,30.10,NNE,26,6.0,13.0,84,0.00,,---,0.00,VWS V14.01,2013-09-28 04:00:00,
2013-09-28 00:01:00,64.1,59.2,30.10,NNE,29,11.0,14.0,84,0.00,,---,0.00,VWS V14.01,2013-09-28 04:01:00,
2013-09-28 00:03:00,64.1,58.5,30.10,North,355,11.0,14.0,82,0.00,,---,0.00,VWS V14.01,2013-09-28 04:03:00,
2013-09-28 00:08:00,64.1,58.8,30.10,NNE,30,13.0,14.0,83,0.00,,---,0.00,VWS V14.01,2013-09-28 04:08:00,
2013-09-28 00:13:00,64.0,58.4,30.10,NNE,24,13.0,15.0,82,0.00,,---,0.00,VWS V14.01,2013-09-28 04:13:00,
2013-09-28 00:18:00,64.0,59.1,30.10,NNE,15,12.0,15.0,84,0.00,,---,0.00,VWS V14.01,2013-09-28 04:18:00,
2013-09-28 00:23:00,64.0,59.1,30.10,NNE,22,13.0,15.0,84,0.00,,---,0.00,VWS V14.01,2013-09-28 04:23:00,
2013-09-28 00:28:00,64.1,59.2,30.10,NNE,18,12.0,13.0,84,0.00,,---,0.00,VWS V14.01,2013-09-28 04:28:00,
2013-09-28 00:33:00,64.1,58.8,30.10,NE,35,12.0,14.0,83,0.00,,---,0.00,VWS V14.01,2013-09-28 04:33:00,
2013-09-28 00:38:00,64.1,58.8,30.10,North,5,11.0,15.0,83,0.00,,---,0.00,VWS V14.01,2013-09-28 04:38:00,
2013-09-28 00:43:00,64.2,59.6,30.10,NNE,21,9.0,15.0,85,0.00,,---,0.00,VWS V14.01,2013-09-28 04:43:00,
2013-09-28 00:49:00,64.2,59.3,30.10,NNE,30,13.0,15.0,84,0.00,,---,0.00,VWS V14.01,2013-09-28 04:49:00,
2013-09-28 00:54:00,64.2,59.3,30.09,NNE,29,13.0,15.0,84,0.00,,---,0.00,VWS V14.01,2013-09-28 04:54:00,
2013-09-28 00:59:00,64.3,59.4,30.09,NE,40,11.0,13.0,84,0.00,,---,0.00,VWS V14.01,2013-09-28 04:59:00,
2013-09-28 01:04:00,64.4,58.8,30.09,NE,38,11.0,16.0,82,0.00,,---,0.00,VWS V14.01,2013-09-28 05:04:00,
2013-09-28 01:09:00,64.4,59.1,30.09,NNE,22,13.0,16.0,83,0.00,,---,0.00,VWS V14.01,2013-09-28 05:09:00,
2013-09-28 01:14:00,64.3,59.0,30.09,NNE,30,11.0,16.0,83,0.00,,---,0.00,VWS V14.01,2013-09-28 05:14:00,
2013-09-28 01:19:00,64.5,59.2,30.09,NNE,24,12.0,16.0,83,0.00,,---,0.00,VWS V14.01,2013-09-28 05:19:00,
2013-09-28 01:24:00,64.5,59.2,30.09,NNE,28,14.0,16.0,83,0.00,,---,0.00,VWS V14.01,2013-09-28 05:24:00,
2013-09-28 01:29:00,64.6,59.0,30.09,NNE,33,13.0,15.0,82,0.00,,---,0.00,VWS V14.01,2013-09-28 05:29:00,
2013-09-28 01:34:00,64.5,58.9,30.09,NNE,28,17.0,17.0,82,0.00,,---,0.00,VWS V14.01,2013-09-28 05:34:00,
2013-09-28 01:39:00,64.6,59.3,30.09,NNE,26,17.0,18.0,83,0.00,,---,0.00,VWS V14.01,2013-09-28 05:39:00,
2013-09-28 01:44:00,64.8,59.5,30.09,NNE,30,14.0,18.0,83,0.00,,---,0.00,VWS V14.01,2013-09-28 05:44:00,
2013-09-28 01:49:00,64.7,59.8,30.09,NNE,19,14.0,18.0,84,0.00,,---,0.00,VWS V14.01,2013-09-28 05:49:00,
2013-09-28 01:54:00,64.7,59.1,30.09,NE,44,14.0,18.0,82,0.00,,---,0.00,VWS V14.01,2013-09-28 05:54:00,
2013-09-28 01:59:00,64.7,58.7,30.09,NE,38,12.0,17.0,81,0.00,,---,0.00,VWS V14.01,2013-09-28 05:59:00,
2013-09-28 02:05:00,64.7,59.4,30.09,NE,55,13.0,17.0,83,0.00,,---,0.00,VWS V14.01,2013-09-28 06:05:00,
2013-09-28 02:10:00,64.7,59.4,30.09,NE,48,12.0,17.0,83,0.00,,---,0.00,VWS V14.01,2013-09-28 06:10:00,
2013-09-28 02:15:00,64.9,59.6,30.08,NE,40,16.0,17.0,83,0.00,,---,0.00,VWS V14.01,2013-09-28 06:15:00,
2013-09-28 02:20:00,64.9,60.0,30.08,NE,34,13.0,17.0,84,0.00,,---,0.00,VWS V14.01,2013-09-28 06:20:00,
2013-09-28 02:25:00,64.8,59.2,30.08,NNE,28,16.0,18.0,82,0.00,,---,0.00,VWS V14.01,2013-09-28 06:25:00,
2013-09-28 02:30:00,64.8,60.2,30.08,NE,37,14.0,16.0,85,0.00,,---,0.00,VWS V14.01,2013-09-28 06:30:00,
2013-09-28 02:35:00,64.7,59.4,30.08,NNE,16,14.0,17.0,83,0.00,,---,0.00,VWS V14.01,2013-09-28 06:35:00,
2013-09-28 02:40:00,64.7,60.1,30.08,NNE,15,13.0,17.0,85,0.00,,---,0.00,VWS V14.01,2013-09-28 06:40:00,
2013-09-28 02:45:00,64.6,59.7,30.08,NNE,32,13.0,17.0,84,0.00,,---,0.00,VWS V14.01,2013-09-28 06:45:00,
2013-09-28 02:50:00,64.6,59.7,30.08,NE,39,14.0,17.0,84,0.00,,---,0.00,VWS V14.01,2013-09-28 06:50:00,
2013-09-28 02:55:00,64.6,59.7,30.08,NE,34,12.0,17.0,84,0.00,,---,0.00,VWS V14.01,2013-09-28 06:55:00,
2013-09-28 03:00:00,64.5,59.6,30.08,NNE,28,13.0,15.0,84,0.00,,---,0.00,VWS V14.01,2013-09-28 07:00:00,
2013-09-28 03:05:00,64.7,60.4,30.08,North,5,15.0,16.0,86,0.00,,---,0.00,VWS V14.01,2013-09-28 07:05:00,
2013-09-28 03:10:00,64.7,60.1,30.07,NE,40,15.0,19.0,85,0.00,,---,0.00,VWS V14.01,2013-09-28 07:10:00,
2013-09-28 03:16:00,64.7,59.8,30.07,NE,35,14.0,19.0,84,0.00,,---,0.00,VWS V14.01,2013-09-28 07:16:00,
2013-09-28 03:21:00,64.7,59.8,30.08,NNE,19,13.0,19.0,84,0.00,,---,0.00,VWS V14.01,2013-09-28 07:21:00,
2013-09-28 03:26:00,64.8,60.2,30.08,NNE,31,12.0,19.0,85,0.00,,---,0.00,VWS V14.01,2013-09-28 07:26:00,
2013-09-28 03:31:00,64.8,59.5,30.07,NE,40,12.0,18.0,83,0.00,,---,0.00,VWS V14.01,2013-09-28 07:31:00,
2013-09-28 03:36:00,64.7,59.8,30.07,NE,42,14.0,18.0,84,0.00,,---,0.00,VWS V14.01,2013-09-28 07:36:00,
2013-09-28 03:41:00,64.6,60.0,30.07,NE,43,14.0,18.0,85,0.00,,---,0.00,VWS V14.01,2013-09-28 07:41:00,
2013-09-28 03:46:00,64.7,60.4,30.07,NE,36,12.0,18.0,86,0.00,,---,0.00,VWS V14.01,2013-09-28 07:46:00,
2013-09-28 03:51:00,64.7,59.8,30.07,NE,38,16.0,19.0,84,0.00,,---,0.00,VWS V14.01,2013-09-28 07:51:00,
2013-09-28 03:56:00,64.8,60.2,30.07,NNE,32,15.0,19.0,85,0.00,,---,0.00,VWS V14.01,2013-09-28 07:56:00,
2013-09-28 04:01:00,64.9,60.0,30.07,NNE,30,13.0,17.0,84,0.00,,---,0.00,VWS V14.01,2013-09-28 08:01:00,
2013-09-28 04:06:00,65.0,60.0,30.07,NE,36,15.0,18.0,84,0.00,,---,0.00,VWS V14.01,2013-09-28 08:06:00,
2013-09-28 04:11:00,64.9,60.3,30.07,NE,36,16.0,19.0,85,0.00,,---,0.00,VWS V14.01,2013-09-28 08:11:00,
2013-09-28 04:16:00,65.1,60.5,30.07,NNE,26,15.0,19.0,85,0.00,,---,0.00,VWS V14.01,2013-09-28 08:16:00,
2013-09-28 04:21:00,65.1,60.2,30.07,NNE,32,15.0,19.0,84,0.00,,---,0.00,VWS V14.01,2013-09-28 08:21:00,
2013-09-28 04:26:00,65.0,60.4,30.07,NE,46,12.0,19.0,85,0.00,,---,0.00,VWS V14.01,2013-09-28 08:26:00,
2013-09-28 04:32:00,65.0,60.4,30.07,NE,40,16.0,17.0,85,0.00,,---,0.00,VWS V14.01,2013-09-28 08:32:00,
2013-09-28 04:37:00,65.2,59.9,30.07,NE,42,13.0,17.0,83,0.00,,---,0.00,VWS V14.01,2013-09-28 08:37:00,
2013-09-28 04:42:00,65.2,60.9,30.07,NE,51,11.0,18.0,86,0.00,,---,0.00,VWS V14.01,2013-09-28 08:42:00,
2013-09-28 04:47:00,65.2,60.2,30.07,NNE,30,18.0,19.0,84,0.00,,---,0.00,VWS V14.01,2013-09-28 08:47:00,
2013-09-28 04:52:00,65.1,60.2,30.07,NE,47,14.0,19.0,84,0.00,,---,0.00,VWS V14.01,2013-09-28 08:52:00,
2013-09-28 04:57:00,65.1,60.8,30.08,NE,40,14.0,19.0,86,0.00,,---,0.00,VWS V14.01,2013-09-28 08:57:00,
2013-09-28 05:02:00,65.2,60.6,30.08,ENE,61,14.0,18.0,85,0.00,,---,0.00,VWS V14.01,2013-09-28 09:02:00,
2013-09-28 05:07:00,65.2,60.6,30.08,NE,47,14.0,20.0,85,0.00,,---,0.00,VWS V14.01,2013-09-28 09:07:00,
2013-09-28 05:12:00,65.2,60.2,30.08,NNE,28,12.0,20.0,84,0.00,,---,0.00,VWS V14.01,2013-09-28 09:12:00,
2013-09-28 05:17:00,65.0,60.4,30.08,NE,50,13.0,20.0,85,0.00,,---,0.00,VWS V14.01,2013-09-28 09:17:00,
2013-09-28 05:22:00,64.9,60.3,30.08,NNE,27,12.0,20.0,85,0.00,,---,0.00,VWS V14.01,2013-09-28 09:22:00,
2013-09-28 05:27:00,64.9,60.9,30.08,NE,38,13.0,15.0,87,0.00,,---,0.00,VWS V14.01,2013-09-28 09:27:00,
2013-09-28 05:33:00,64.8,60.2,30.08,NE,35,13.0,18.0,85,0.00,,---,0.00,VWS V14.01,2013-09-28 09:33:00,
2013-09-28 05:38:00,64.8,60.5,30.08,NNE,17,14.0,20.0,86,0.00,,---,0.00,VWS V14.01,2013-09-28 09:38:00,
2013-09-28 05:43:00,64.6,60.0,30.08,NE,41,17.0,20.0,85,0.00,,---,0.00,VWS V14.01,2013-09-28 09:43:00,
2013-09-28 05:48:00,64.6,60.3,30.09,NE,40,15.0,20.0,86,0.00,,---,0.00,VWS V14.01,2013-09-28 09:48:00,
2013-09-28 05:53:00,64.5,60.2,30.08,NE,36,15.0,20.0,86,0.00,,---,0.00,VWS V14.01,2013-09-28 09:53:00,
2013-09-28 05:58:00,64.5,60.2,30.08,NNE,27,13.0,16.0,86,0.00,,---,0.00,VWS V14.01,2013-09-28 09:58:00,
2013-09-28 06:03:00,64.5,59.9,30.08,NE,45,16.0,19.0,85,0.00,,---,0.00,VWS V14.01,2013-09-28 10:03:00,
2013-09-28 06:08:00,64.4,60.1,30.09,NE,37,17.0,21.0,86,0.00,,---,0.00,VWS V14.01,2013-09-28 10:08:00,
2013-09-28 06:13:00,64.5,60.5,30.09,NE,42,18.0,21.0,87,0.00,,---,0.00,VWS V14.01,2013-09-28 10:13:00,
2013-09-28 06:18:00,64.4,60.5,30.09,NE,42,13.0,21.0,87,0.00,,---,0.00,VWS V14.01,2013-09-28 10:18:00,
2013-09-28 06:23:00,64.4,60.1,30.09,NE,35,16.0,21.0,86,0.00,,---,0.00,VWS V14.01,2013-09-28 10:23:00,
2013-09-28 06:28:00,64.4,60.5,30.09,NE,48,13.0,15.0,87,0.00,,---,0.00,VWS V14.01,2013-09-28 10:28:00,
2013-09-28 06:33:00,64.3,60.3,30.09,NE,36,15.0,19.0,87,0.00,,---,0.00,VWS V14.01,2013-09-28 10:33:00,
2013-09-28 06:38:00,64.3,60.3,30.10,NE,40,16.0,19.0,87,0.00,,---,0.00,VWS V14.01,2013-09-28 10:38:00,
2013-09-28 06:44:00,64.2,60.6,30.10,NNE,32,13.0,20.0,88,0.00,,---,0.00,VWS V14.01,2013-09-28 10:44:00,
2013-09-28 06:49:00,64.1,60.2,30.10,NNE,28,16.0,20.0,87,0.00,,---,0.00,VWS V14.01,2013-09-28 10:49:00,
2013-09-28 06:54:00,64.0,60.1,30.10,NE,41,15.0,20.0,87,0.00,,---,0.00,VWS V14.01,2013-09-28 10:54:00,
2013-09-28 06:59:00,64.0,60.1,30.10,NNE,28,15.0,18.0,87,0.00,,---,0.00,VWS V14.01,2013-09-28 10:59:00,
2013-09-28 07:04:00,63.9,60.3,30.10,NNE,28,13.0,19.0,88,0.00,,---,0.00,VWS V14.01,2013-09-28 11:04:00,
2013-09-28 07:09:00,63.9,60.0,30.10,NE,37,14.0,22.0,87,0.00,,---,0.00,VWS V14.01,2013-09-28 11:09:00,
2013-09-28 07:14:00,63.9,60.0,30.10,NE,48,18.0,22.0,87,0.00,,---,0.00,VWS V14.01,2013-09-28 11:14:00,
2013-09-28 07:19:00,63.9,60.0,30.10,NE,40,14.0,22.0,87,0.00,,---,0.00,VWS V14.01,2013-09-28 11:19:00,
2013-09-28 07:24:00,64.0,59.7,30.10,NE,50,15.0,22.0,86,0.00,,---,0.00,VWS V14.01,2013-09-28 11:24:00,
2013-09-28 07:29:00,64.1,60.2,30.11,ENE,57,16.0,18.0,87,0.00,,---,0.00,VWS V14.01,2013-09-28 11:29:00,
2013-09-28 07:34:00,64.0,60.1,30.11,NE,37,14.0,19.0,87,0.00,,---,0.00,VWS V14.01,2013-09-28 11:34:00,
2013-09-28 07:39:00,64.1,59.8,30.11,NE,40,12.0,19.0,86,0.00,,---,0.00,VWS V14.01,2013-09-28 11:39:00,
2013-09-28 07:44:00,63.9,59.6,30.12,NE,46,14.0,19.0,86,0.00,,---,0.00,VWS V14.01,2013-09-28 11:44:00,
2013-09-28 07:49:00,64.0,59.7,30.12,NE,40,16.0,19.0,86,0.00,,---,0.00,VWS V14.01,2013-09-28 11:49:00,
2013-09-28 07:54:00,64.0,59.7,30.12,NNE,23,14.0,19.0,86,0.00,,---,0.00,VWS V14.01,2013-09-28 11:54:00,
2013-09-28 08:00:00,64.0,59.7,30.12,NNE,26,16.0,18.0,86,0.00,,---,0.00,VWS V14.01,2013-09-28 12:00:00,
2013-09-28 08:05:00,64.2,60.3,30.12,NNE,27,14.0,18.0,87,0.00,,---,0.00,VWS V14.01,2013-09-28 12:05:00,
2013-09-28 08:10:00,64.2,59.9,30.12,NE,40,12.0,21.0,86,0.00,,---,0.00,VWS V14.01,2013-09-28 12:10:00,
2013-09-28 08:15:00,64.3,60.3,30.12,NE,41,12.0,21.0,87,0.00,,---,0.00,VWS V14.01,2013-09-28 12:15:00,
2013-09-28 08:20:00,64.4,59.8,30.13,NE,38,14.0,21.0,85,0.00,,---,0.00,VWS V14.01,2013-09-28 12:20:00,
2013-09-28 08:25:00,64.5,60.2,30.13,NE,44,17.0,21.0,86,0.00,,---,0.00,VWS V14.01,2013-09-28 12:25:00,
2013-09-28 08:30:00,64.6,60.3,30.13,NE,42,11.0,17.0,86,0.00,,---,0.00,VWS V14.01,2013-09-28 12:30:00,
2013-09-28 08:35:00,64.9,60.3,30.12,NE,42,14.0,17.0,85,0.00,,---,0.00,VWS V14.01,2013-09-28 12:35:00,
2013-09-28 08:40:00,65.1,60.5,30.12,NE,39,14.0,19.0,85,0.00,,---,0.00,VWS V14.01,2013-09-28 12:40:00,
2013-09-28 08:45:00,65.2,59.9,30.12,NE,49,12.0,22.0,83,0.00,,---,0.00,VWS V14.01,2013-09-28 12:45:00,
2013-09-28 08:50:00,65.5,60.9,30.12,NE,42,11.0,23.0,85,0.00,,---,0.00,VWS V14.01,2013-09-28 12:50:00,
2013-09-28 08:55:00,65.6,60.3,30.13,NE,52,16.0,23.0,83,0.00,,---,0.00,VWS V14.01,2013-09-28 12:55:00,
2013-09-28 09:01:00,65.8,60.5,30.13,NE,50,14.0,18.0,83,0.00,,---,0.00,VWS V14.01,2013-09-28 13:01:00,
2013-09-28 09:06:00,65.9,60.6,30.13,NE,51,18.0,22.0,83,0.00,,---,0.00,VWS V14.01,2013-09-28 13:06:00,
2013-09-28 09:11:00,66.0,60.0,30.14,NE,53,15.0,23.0,81,0.00,,---,0.00,VWS V14.01,2013-09-28 13:11:00,
2013-09-28 09:16:00,66.2,60.9,30.14,NE,35,20.0,23.0,83,0.00,,---,0.00,VWS V14.01,2013-09-28 13:16:00,
2013-09-28 09:21:00,66.3,60.7,30.13,NE,46,17.0,23.0,82,0.00,,---,0.00,VWS V14.01,2013-09-28 13:21:00,
2013-09-28 09:26:00,66.6,60.6,30.13,NE,45,18.0,23.0,81,0.00,,---,0.00,VWS V14.01,2013-09-28 13:26:00,
2013-09-28 09:31:00,66.7,60.3,30.13,NE,43,15.0,23.0,80,0.00,,---,0.00,VWS V14.01,2013-09-28 13:31:00,
2013-09-28 09:36:00,67.1,60.7,30.13,ENE,59,19.0,23.0,80,0.00,,---,0.00,VWS V14.01,2013-09-28 13:36:00,
2013-09-28 09:41:00,67.1,60.0,30.14,ENE,60,17.0,23.0,78,0.00,,---,0.00,VWS V14.01,2013-09-28 13:41:00,
2013-09-28 09:46:00,67.3,60.6,30.13,NE,36,21.0,23.0,79,0.00,,---,0.00,VWS V14.01,2013-09-28 13:46:00,
2013-09-28 09:51:00,67.5,60.8,30.14,NE,42,16.0,23.0,79,0.00,,---,0.00,VWS V14.01,2013-09-28 13:51:00,
2013-09-28 09:56:00,67.6,60.5,30.14,NE,51,21.0,23.0,78,0.00,,---,0.00,VWS V14.01,2013-09-28 13:56:00,
2013-09-28 10:01:00,67.8,61.1,30.14,NNE,31,16.0,21.0,79,0.00,,---,0.00,VWS V14.01,2013-09-28 14:01:00,
2013-09-28 10:06:00,68.0,61.2,30.14,NE,35,18.0,21.0,79,0.00,,---,0.00,VWS V14.01,2013-09-28 14:06:00,
2013-09-28 10:12:00,68.2,60.7,30.14,NE,46,17.0,24.0,77,0.00,,---,0.00,VWS V14.01,2013-09-28 14:12:00,
2013-09-28 10:17:00,68.4,60.9,30.14,NE,49,15.0,24.0,77,0.00,,---,0.00,VWS V14.01,2013-09-28 14:17:00,
2013-09-28 10:22:00,68.7,60.8,30.14,NE,49,15.0,24.0,76,0.00,,---,0.00,VWS V14.01,2013-09-28 14:22:00,
2013-09-28 10:27:00,68.8,60.9,30.14,ENE,62,13.0,24.0,76,0.00,,---,0.00,VWS V14.01,2013-09-28 14:27:00,
2013-09-28 10:32:00,69.0,60.8,30.14,NE,49,15.0,22.0,75,0.00,,---,0.00,VWS V14.01,2013-09-28 14:32:00,
2013-09-28 10:37:00,69.1,61.2,30.15,NE,54,16.0,23.0,76,0.00,,---,0.00,VWS V14.01,2013-09-28 14:37:00,
2013-09-28 10:42:00,69.2,60.2,30.14,ENE,58,13.0,23.0,73,0.00,,---,0.00,VWS V14.01,2013-09-28 14:42:00,
2013-09-28 10:47:00,69.5,60.5,30.14,ENE,65,17.0,23.0,73,0.00,,---,0.00,VWS V14.01,2013-09-28 14:47:00,
2013-09-28 10:52:00,69.6,61.0,30.14,NE,53,21.0,23.0,74,0.00,,---,0.00,VWS V14.01,2013-09-28 14:52:00,
2013-09-28 10:57:00,69.8,61.2,30.15,ENE,76,15.0,19.0,74,0.00,,---,0.00,VWS V14.01,2013-09-28 14:57:00,
2013-09-28 11:02:00,70.1,61.0,30.15,ENE,65,17.0,21.0,73,0.00,,---,0.00,VWS V14.01,2013-09-28 15:02:00,
2013-09-28 11:07:00,70.1,61.0,30.14,ENE,57,11.0,21.0,73,0.00,,---,0.00,VWS V14.01,2013-09-28 15:07:00,
2013-09-28 11:12:00,70.3,60.9,30.15,NE,55,15.0,21.0,72,0.00,,---,0.00,VWS V14.01,2013-09-28 15:12:00,
2013-09-28 11:17:00,70.3,60.5,30.15,NE,51,12.0,21.0,71,0.00,,---,0.00,VWS V14.01,2013-09-28 15:17:00,
2013-09-28 11:23:00,70.3,60.9,30.15,NE,49,14.0,21.0,72,0.00,,---,0.00,VWS V14.01,2013-09-28 15:23:00,
2013-09-28 11:28:00,70.5,61.4,30.15,ENE,62,11.0,14.0,73,0.00,,---,0.00,VWS V14.01,2013-09-28 15:28:00,
2013-09-28 11:33:00,70.8,61.7,30.15,ENE,77,13.0,21.0,73,0.00,,---,0.00,VWS V14.01,2013-09-28 15:33:00,
2013-09-28 11:38:00,71.0,61.1,30.15,East,88,13.0,21.0,71,0.00,,---,0.00,VWS V14.01,2013-09-28 15:38:00,
2013-09-28 11:43:00,71.3,61.8,30.15,ENE,75,14.0,21.0,72,0.00,,---,0.00,VWS V14.01,2013-09-28 15:43:00,
2013-09-28 11:48:00,71.3,61.0,30.15,ESE,110,11.0,21.0,70,0.00,,---,0.00,VWS V14.01,2013-09-28 15:48:00,
2013-09-28 11:53:00,71.7,61.0,30.15,ENE,63,15.0,21.0,69,0.00,,---,0.00,VWS V14.01,2013-09-28 15:53:00,
2013-09-28 11:58:00,71.6,60.9,30.15,ENE,58,12.0,17.0,69,0.00,,---,0.00,VWS V14.01,2013-09-28 15:58:00,
2013-09-28 12:03:00,71.7,60.6,30.15,ENE,72,18.0,20.0,68,0.00,,---,0.00,VWS V14.01,2013-09-28 16:03:00,
2013-09-28 12:08:00,71.7,61.0,30.15,ENE,61,17.0,20.0,69,0.00,,---,0.00,VWS V14.01,2013-09-28 16:08:00,
2013-09-28 12:13:00,71.7,61.4,30.14,ENE,57,15.0,20.0,70,0.00,,---,0.00,VWS V14.01,2013-09-28 16:13:00,
2013-09-28 12:18:00,72.0,61.3,30.14,ENE,63,14.0,21.0,69,0.00,,---,0.00,VWS V14.01,2013-09-28 16:18:00,
2013-09-28 12:23:00,72.1,61.4,30.14,East,89,10.0,21.0,69,0.00,,---,0.00,VWS V14.01,2013-09-28 16:23:00,
2013-09-28 12:28:00,72.3,61.2,30.13,NNE,24,11.0,15.0,68,0.00,,---,0.00,VWS V14.01,2013-09-28 16:28:00,
2013-09-28 12:33:00,72.3,61.6,30.14,ENE,57,14.0,16.0,69,0.00,,---,0.00,VWS V14.01,2013-09-28 16:33:00,
2013-09-28 12:39:00,72.8,61.2,30.14,ENE,60,12.0,19.0,67,0.00,,---,0.00,VWS V14.01,2013-09-28 16:39:00,
2013-09-28 12:44:00,72.5,60.5,30.14,NE,55,16.0,21.0,66,0.00,,---,0.00,VWS V14.01,2013-09-28 16:44:00,
2013-09-28 12:49:00,72.5,60.5,30.14,NE,51,12.0,21.0,66,0.00,,---,0.00,VWS V14.01,2013-09-28 16:49:00,
2013-09-28 12:54:00,72.5,60.5,30.13,NE,56,18.0,21.0,66,0.00,,---,0.00,VWS V14.01,2013-09-28 16:54:00,
2013-09-28 12:59:00,72.7,61.1,30.13,NNE,27,11.0,14.0,67,0.00,,---,0.00,VWS V14.01,2013-09-28 16:59:00,
2013-09-28 13:04:00,72.9,60.9,30.13,ENE,62,12.0,20.0,66,0.00,,---,0.00,VWS V14.01,2013-09-28 17:04:00,
2013-09-28 13:09:00,73.1,60.7,30.14,ENE,75,16.0,20.0,65,0.00,,---,0.00,VWS V14.01,2013-09-28 17:09:00,
2013-09-28 13:14:00,73.3,60.8,30.13,NE,44,9.0,20.0,65,0.00,,---,0.00,VWS V14.01,2013-09-28 17:14:00,
2013-09-28 13:19:00,73.4,60.0,30.13,ENE,65,12.0,20.0,63,0.00,,---,0.00,VWS V14.01,2013-09-28 17:19:00,
2013-09-28 13:24:00,73.4,60.0,30.13,NE,40,12.0,21.0,63,0.00,,---,0.00,VWS V14.01,2013-09-28 17:24:00,
2013-09-28 13:29:00,73.5,60.2,30.13,NE,53,12.0,14.0,63,0.00,,---,0.00,VWS V14.01,2013-09-28 17:29:00,
2013-09-28 13:34:00,73.4,60.9,30.12,ENE,57,14.0,22.0,65,0.00,,---,0.00,VWS V14.01,2013-09-28 17:34:00,
2013-09-28 13:39:00,73.7,60.8,30.12,NNE,19,17.0,22.0,64,0.00,,---,0.00,VWS V14.01,2013-09-28 17:39:00,
2013-09-28 13:45:00,73.7,61.2,30.12,ENE,74,14.0,22.0,65,0.00,,---,0.00,VWS V14.01,2013-09-28 17:45:00,
2013-09-28 13:50:00,73.6,61.1,30.12,NE,53,10.0,22.0,65,0.00,,---,0.00,VWS V14.01,2013-09-28 17:50:00,
2013-09-28 13:55:00,73.7,61.7,30.12,NE,55,12.0,22.0,66,0.00,,---,0.00,VWS V14.01,2013-09-28 17:55:00,
2013-09-28 14:00:00,73.8,60.9,30.12,ENE,63,9.0,16.0,64,0.00,,---,0.00,VWS V14.01,2013-09-28 18:00:00,
2013-09-28 14:05:00,73.9,60.5,30.12,ENE,71,13.0,16.0,63,0.00,,---,0.00,VWS V14.01,2013-09-28 18:05:00,
2013-09-28 14:10:00,74.1,60.3,30.12,ENE,58,8.0,16.0,62,0.00,,---,0.00,VWS V14.01,2013-09-28 18:10:00,
2013-09-28 14:15:00,74.2,60.4,30.11,ENE,61,7.0,19.0,62,0.00,,---,0.00,VWS V14.01,2013-09-28 18:15:00,
2013-09-28 14:20:00,74.0,62.4,30.11,ENE,67,11.0,19.0,67,0.00,,---,0.00,VWS V14.01,2013-09-28 18:20:00,
2013-09-28 14:25:00,74.3,60.5,30.11,ENE,69,12.0,19.0,62,0.00,,---,0.00,VWS V14.01,2013-09-28 18:25:00,
2013-09-28 14:31:00,74.3,61.3,30.11,NE,55,15.0,18.0,64,0.00,,---,0.00,VWS V14.01,2013-09-28 18:31:00,
2013-09-28 14:36:00,74.3,60.9,30.11,ENE,68,12.0,18.0,63,0.00,,---,0.00,VWS V14.01,2013-09-28 18:36:00,
2013-09-28 14:41:00,74.4,60.1,30.10,NE,55,12.0,20.0,61,0.00,,---,0.00,VWS V14.01,2013-09-28 18:41:00,
2013-09-28 14:46:00,74.4,61.9,30.10,NE,41,10.0,20.0,65,0.00,,---,0.00,VWS V14.01,2013-09-28 18:46:00,
2013-09-28 14:51:00,74.4,60.5,30.10,NE,40,18.0,22.0,62,0.00,,---,0.00,VWS V14.01,2013-09-28 18:51:00,
2013-09-28 14:56:00,74.2,59.9,30.10,NE,42,12.0,22.0,61,0.00,,---,0.00,VWS V14.01,2013-09-28 18:56:00,
2013-09-28 15:01:00,74.6,60.3,30.09,ENE,67,12.0,14.0,61,0.00,,---,0.00,VWS V14.01,2013-09-28 19:01:00,
2013-09-28 15:06:00,74.9,60.1,30.10,East,83,10.0,16.0,60,0.00,,---,0.00,VWS V14.01,2013-09-28 19:06:00,
2013-09-28 15:11:00,74.8,60.5,30.10,NE,46,13.0,18.0,61,0.00,,---,0.00,VWS V14.01,2013-09-28 19:11:00,
2013-09-28 15:16:00,74.5,59.7,30.09,NE,53,14.0,18.0,60,0.00,,---,0.00,VWS V14.01,2013-09-28 19:16:00,
2013-09-28 15:21:00,74.3,60.5,30.09,NE,53,12.0,18.0,62,0.00,,---,0.00,VWS V14.01,2013-09-28 19:21:00,
2013-09-28 15:27:00,74.6,60.3,30.09,NE,54,7.0,18.0,61,0.00,,---,0.00,VWS V14.01,2013-09-28 19:27:00,
2013-09-28 15:32:00,74.9,60.6,30.09,East,96,13.0,16.0,61,0.00,,---,0.00,VWS V14.01,2013-09-28 19:32:00,
2013-09-28 15:37:00,74.9,60.6,30.09,NE,45,14.0,17.0,61,0.00,,---,0.00,VWS V14.01,2013-09-28 19:37:00,
2013-09-28 15:42:00,74.8,60.9,30.09,ENE,61,12.0,17.0,62,0.00,,---,0.00,VWS V14.01,2013-09-28 19:42:00,
2013-09-28 15:47:00,75.1,59.8,30.09,ENE,61,13.0,17.0,59,0.00,,---,0.00,VWS V14.01,2013-09-28 19:47:00,
2013-09-28 15:52:00,75.4,60.1,30.09,ENE,65,7.0,17.0,59,0.00,,---,0.00,VWS V14.01,2013-09-28 19:52:00,
2013-09-28 15:57:00,75.3,59.5,30.09,NE,42,12.0,17.0,58,0.00,,---,0.00,VWS V14.01,2013-09-28 19:57:00,
2013-09-28 16:02:00,74.8,60.9,30.09,NE,40,12.0,15.0,62,0.00,,---,0.00,VWS V14.01,2013-09-28 20:02:00,
2013-09-28 16:07:00,74.7,60.4,30.08,NE,50,13.0,17.0,61,0.00,,---,0.00,VWS V14.01,2013-09-28 20:07:00,
2013-09-28 16:12:00,74.8,60.9,30.08,NE,44,11.0,17.0,62,0.00,,---,0.00,VWS V14.01,2013-09-28 20:12:00,
2013-09-28 16:17:00,74.9,60.1,30.08,ENE,66,10.0,17.0,60,0.00,,---,0.00,VWS V14.01,2013-09-28 20:17:00,
2013-09-28 16:22:00,75.6,60.3,30.08,ENE,63,11.0,17.0,59,0.00,,---,0.00,VWS V14.01,2013-09-28 20:22:00,
2013-09-28 16:28:00,75.9,60.1,30.08,ENE,68,9.0,13.0,58,0.00,,---,0.00,VWS V14.01,2013-09-28 20:28:00,
2013-09-28 16:33:00,75.9,60.6,30.08,NE,55,11.0,14.0,59,0.00,,---,0.00,VWS V14.01,2013-09-28 20:33:00,
2013-09-28 16:38:00,75.6,60.8,30.09,ENE,63,14.0,17.0,60,0.00,,---,0.00,VWS V14.01,2013-09-28 20:38:00,
2013-09-28 16:43:00,75.8,61.4,30.08,ENE,67,16.0,17.0,61,0.00,,---,0.00,VWS V14.01,2013-09-28 20:43:00,
2013-09-28 16:48:00,75.8,59.5,30.09,East,97,9.0,17.0,57,0.00,,---,0.00,VWS V14.01,2013-09-28 20:48:00,
2013-09-28 16:53:00,75.7,60.4,30.09,ENE,71,9.0,17.0,59,0.00,,---,0.00,VWS V14.01,2013-09-28 20:53:00,
2013-09-28 16:58:00,75.5,60.7,30.09,ENE,75,7.0,11.0,60,0.00,,---,0.00,VWS V14.01,2013-09-28 20:58:00,
2013-09-28 17:03:00,75.3,60.0,30.09,ENE,61,10.0,14.0,59,0.00,,---,0.00,VWS V14.01,2013-09-28 21:03:00,
2013-09-28 17:08:00,75.2,60.8,30.09,ENE,65,6.0,14.0,61,0.00,,---,0.00,VWS V14.01,2013-09-28 21:08:00,
2013-09-28 17:13:00,75.2,59.9,30.09,ENE,59,7.0,14.0,59,0.00,,---,0.00,VWS V14.01,2013-09-28 21:13:00,
2013-09-28 17:18:00,75.8,60.0,30.09,ENE,65,6.0,15.0,58,0.00,,---,0.00,VWS V14.01,2013-09-28 21:18:00,
2013-09-28 17:24:00,76.1,61.2,30.09,East,86,9.0,15.0,60,0.00,,---,0.00,VWS V14.01,2013-09-28 21:24:00,
2013-09-28 17:29:00,76.3,60.9,30.09,ENE,58,11.0,14.0,59,0.00,,---,0.00,VWS V14.01,2013-09-28 21:29:00,
2013-09-28 17:34:00,76.3,60.0,30.09,ENE,75,7.0,15.0,57,0.00,,---,0.00,VWS V14.01,2013-09-28 21:34:00,
2013-09-28 17:39:00,76.4,60.1,30.09,NE,41,7.0,15.0,57,0.00,,---,0.00,VWS V14.01,2013-09-28 21:39:00,
2013-09-28 17:44:00,75.9,60.6,30.09,ENE,67,9.0,15.0,59,0.00,,---,0.00,VWS V14.01,2013-09-28 21:44:00,
2013-09-28 17:49:00,75.6,60.8,30.09,ESE,104,8.0,15.0,60,0.00,,---,0.00,VWS V14.01,2013-09-28 21:49:00,
2013-09-28 17:54:00,75.9,62.9,30.09,East,94,6.0,15.0,64,0.00,,---,0.00,VWS V14.01,2013-09-28 21:54:00,
2013-09-28 17:59:00,75.8,62.3,30.09,ENE,62,13.0,16.0,63,0.00,,---,0.00,VWS V14.01,2013-09-28 21:59:00,
2013-09-28 18:04:00,75.5,61.6,30.09,ENE,67,14.0,17.0,62,0.00,,---,0.00,VWS V14.01,2013-09-28 22:04:00,
2013-09-28 18:09:00,75.2,62.6,30.09,ENE,76,12.0,17.0,65,0.00,,---,0.00,VWS V14.01,2013-09-28 22:09:00,
2013-09-28 18:14:00,74.8,63.1,30.09,ENE,75,8.0,17.0,67,0.00,,---,0.00,VWS V14.01,2013-09-28 22:14:00,
2013-09-28 18:20:00,74.8,64.0,30.09,NE,51,5.0,17.0,69,0.00,,---,0.00,VWS V14.01,2013-09-28 22:20:00,
2013-09-28 18:25:00,74.8,63.1,30.09,ENE,57,8.0,17.0,67,0.00,,---,0.00,VWS V14.01,2013-09-28 22:25:00,
2013-09-28 18:30:00,74.5,62.0,30.09,NE,54,9.0,11.0,65,0.00,,---,0.00,VWS V14.01,2013-09-28 22:30:00,
2013-09-28 18:35:00,74.4,63.2,30.10,NE,51,6.0,13.0,68,0.00,,---,0.00,VWS V14.01,2013-09-28 22:35:00,
2013-09-28 18:40:00,74.3,62.2,30.10,ENE,61,9.0,13.0,66,0.00,,---,0.00,VWS V14.01,2013-09-28 22:40:00,
2013-09-28 18:45:00,74.2,63.4,30.10,East,86,14.0,15.0,69,0.00,,---,0.00,VWS V14.01,2013-09-28 22:45:00,
2013-09-28 18:50:00,74.1,62.0,30.10,NE,55,11.0,15.0,66,0.00,,---,0.00,VWS V14.01,2013-09-28 22:50:00,
2013-09-28 18:55:00,73.8,61.3,30.09,ENE,78,11.0,17.0,65,0.00,,---,0.00,VWS V14.01,2013-09-28 22:55:00,
2013-09-28 19:00:00,73.5,61.0,30.09,ENE,74,17.0,17.0,65,0.00,,---,0.00,VWS V14.01,2013-09-28 23:00:00,
2013-09-28 19:05:00,73.2,61.2,30.09,East,94,16.0,19.0,66,0.00,,---,0.00,VWS V14.01,2013-09-28 23:05:00,
2013-09-28 19:10:00,73.0,61.4,30.09,East,82,5.0,19.0,67,0.00,,---,0.00,VWS V14.01,2013-09-28 23:10:00,
2013-09-28 19:16:00,72.8,61.2,30.09,East,80,7.0,19.0,67,0.00,,---,0.00,VWS V14.01,2013-09-28 23:16:00,
2013-09-28 19:21:00,72.7,63.2,30.10,East,89,10.0,19.0,72,0.00,,---,0.00,VWS V14.01,2013-09-28 23:21:00,
2013-09-28 19:26:00,72.6,63.1,30.10,ENE,69,12.0,19.0,72,0.00,,---,0.00,VWS V14.01,2013-09-28 23:26:00,
2013-09-28 19:31:00,72.3,62.0,30.10,ENE,66,10.0,13.0,70,0.00,,---,0.00,VWS V14.01,2013-09-28 23:31:00,
2013-09-28 19:36:00,71.9,62.0,30.10,ENE,57,11.0,13.0,71,0.00,,---,0.00,VWS V14.01,2013-09-28 23:36:00,
2013-09-28 19:41:00,71.6,62.5,30.10,NE,40,9.0,13.0,73,0.00,,---,0.00,VWS V14.01,2013-09-28 23:41:00,
2013-09-28 19:46:00,71.3,61.8,30.10,NE,50,7.0,13.0,72,0.00,,---,0.00,VWS V14.01,2013-09-28 23:46:00,
2013-09-28 19:51:00,71.2,61.7,30.10,NE,46,10.0,13.0,72,0.00,,---,0.00,VWS V14.01,2013-09-28 23:51:00,
2013-09-28 19:56:00,71.0,61.5,30.11,NE,51,11.0,13.0,72,0.00,,---,0.00,VWS V14.01,2013-09-28 23:56:00,
2013-09-28 20:01:00,70.9,61.8,30.11,NE,40,10.0,14.0,73,0.00,,---,0.00,VWS V14.01,2013-09-29 00:01:00,
2013-09-28 20:06:00,70.6,61.9,30.11,NE,49,13.0,14.0,74,0.00,,---,0.00,VWS V14.01,2013-09-29 00:06:00,
2013-09-28 20:11:00,70.3,61.2,30.11,NNE,28,10.0,16.0,73,0.00,,---,0.00,VWS V14.01,2013-09-29 00:11:00,
2013-09-28 20:16:00,70.1,61.4,30.11,NE,36,10.0,16.0,74,0.00,,---,0.00,VWS V14.01,2013-09-29 00:16:00,
2013-09-28 20:22:00,69.6,60.6,30.11,NNE,15,10.0,16.0,73,0.00,,---,0.00,VWS V14.01,2013-09-29 00:22:00,
2013-09-28 20:27:00,69.1,60.5,30.11,NNE,16,9.0,16.0,74,0.00,,---,0.00,VWS V14.01,2013-09-29 00:27:00,
2013-09-28 20:32:00,68.8,60.9,30.11,North,10,6.0,10.0,76,0.00,,---,0.00,VWS V14.01,2013-09-29 00:32:00,
2013-09-28 20:37:00,68.3,61.2,30.12,NNE,15,10.0,10.0,78,0.00,,---,0.00,VWS V14.01,2013-09-29 00:37:00,
2013-09-28 20:42:00,67.9,60.8,30.11,NNE,12,11.0,11.0,78,0.00,,---,0.00,VWS V14.01,2013-09-29 00:42:00,
2013-09-28 20:47:00,67.7,60.6,30.12,NNE,19,11.0,13.0,78,0.00,,---,0.00,VWS V14.01,2013-09-29 00:47:00,
2013-09-28 20:52:00,67.5,60.8,30.12,NNE,28,10.0,13.0,79,0.00,,---,0.00,VWS V14.01,2013-09-29 00:52:00,
2013-09-28 20:57:00,67.4,61.0,30.12,NNE,28,9.0,10.0,80,0.00,,---,0.00,VWS V14.01,2013-09-29 00:57:00,
2013-09-28 21:02:00,67.5,60.4,30.12,NE,38,11.0,13.0,78,0.00,,---,0.00,VWS V14.01,2013-09-29 01:02:00,
2013-09-28 21:07:00,67.5,60.8,30.12,NE,36,11.0,15.0,79,0.00,,---,0.00,VWS V14.01,2013-09-29 01:07:00,
2013-09-28 21:12:00,67.4,61.4,30.12,NE,51,12.0,15.0,81,0.00,,---,0.00,VWS V14.01,2013-09-29 01:12:00,
2013-09-28 21:18:00,67.3,61.3,30.11,NNE,30,10.0,16.0,81,0.00,,---,0.00,VWS V14.01,2013-09-29 01:18:00,
2013-09-28 21:23:00,67.3,61.3,30.11,NNE,31,10.0,17.0,81,0.00,,---,0.00,VWS V14.01,2013-09-29 01:23:00,
2013-09-28 21:28:00,67.3,61.3,30.11,NE,35,11.0,13.0,81,0.00,,---,0.00,VWS V14.01,2013-09-29 01:28:00,
2013-09-28 21:33:00,67.1,61.1,30.11,NE,49,13.0,14.0,81,0.00,,---,0.00,VWS V14.01,2013-09-29 01:33:00,
2013-09-28 21:38:00,66.8,60.8,30.11,NE,42,11.0,14.0,81,0.00,,---,0.00,VWS V14.01,2013-09-29 01:38:00,
2013-09-28 21:43:00,66.7,60.3,30.11,NE,41,9.0,14.0,80,0.00,,---,0.00,VWS V14.01,2013-09-29 01:43:00,
2013-09-28 21:48:00,66.6,60.9,30.11,NE,43,12.0,14.0,82,0.00,,---,0.00,VWS V14.01,2013-09-29 01:48:00,
2013-09-28 21:53:00,66.5,61.2,30.11,NE,51,10.0,14.0,83,0.00,,---,0.00,VWS V14.01,2013-09-29 01:53:00,
2013-09-28 21:58:00,66.2,60.5,30.11,NNE,32,11.0,13.0,82,0.00,,---,0.00,VWS V14.01,2013-09-29 01:58:00,
2013-09-28 22:03:00,66.0,60.3,30.11,NNE,32,10.0,13.0,82,0.00,,---,0.00,VWS V14.01,2013-09-29 02:03:00,
2013-09-28 22:08:00,65.7,60.7,30.11,NE,50,10.0,13.0,84,0.00,,---,0.00,VWS V14.01,2013-09-29 02:08:00,
2013-09-28 22:13:00,65.7,60.7,30.11,NNE,27,12.0,13.0,84,0.00,,---,0.00,VWS V14.01,2013-09-29 02:13:00,
2013-09-28 22:19:00,65.7,61.1,30.11,NE,51,11.0,14.0,85,0.00,,---,0.00,VWS V14.01,2013-09-29 02:19:00,
2013-09-28 22:24:00,65.9,60.9,30.11,NE,38,9.0,15.0,84,0.00,,---,0.00,VWS V14.01,2013-09-29 02:24:00,
2013-09-28 22:29:00,66.0,61.0,30.11,East,80,11.0,14.0,84,0.00,,---,0.00,VWS V14.01,2013-09-29 02:29:00,
2013-09-28 22:34:00,66.3,61.3,30.11,ENE,64,11.0,16.0,84,0.00,,---,0.00,VWS V14.01,2013-09-29 02:34:00,
2013-09-28 22:39:00,66.3,61.3,30.11,NE,51,11.0,16.0,84,0.00,,---,0.00,VWS V14.01,2013-09-29 02:39:00,
2013-09-28 22:44:00,66.5,61.5,30.11,NE,54,10.0,16.0,84,0.00,,---,0.00,VWS V14.01,2013-09-29 02:44:00,
2013-09-28 22:49:00,66.5,61.5,30.11,NE,53,15.0,16.0,84,0.00,,---,0.00,VWS V14.01,2013-09-29 02:49:00,
2013-09-28 22:54:00,66.6,61.6,30.11,ENE,61,17.0,17.0,84,0.00,,---,0.00,VWS V14.01,2013-09-29 02:54:00,
2013-09-28 22:59:00,66.6,61.6,30.11,ENE,75,10.0,17.0,84,0.00,,---,0.00,VWS V14.01,2013-09-29 02:59:00,
2013-09-28 23:05:00,66.7,62.0,30.11,NE,53,14.0,18.0,85,0.00,,---,0.00,VWS V14.01,2013-09-29 03:05:00,
2013-09-28 23:10:00,66.7,61.4,30.11,ENE,59,11.0,19.0,83,0.00,,---,0.00,VWS V14.01,2013-09-29 03:10:00,
2013-09-28 23:15:00,66.7,61.7,30.11,NE,51,14.0,19.0,84,0.00,,---,0.00,VWS V14.01,2013-09-29 03:15:00,
2013-09-28 23:20:00,66.7,61.7,30.11,ENE,66,11.0,19.0,84,0.00,,---,0.00,VWS V14.01,2013-09-29 03:20:00,
2013-09-28 23:25:00,66.6,61.6,30.11,ENE,58,16.0,19.0,84,0.00,,---,0.00,VWS V14.01,2013-09-29 03:25:00,
2013-09-28 23:31:00,66.4,61.4,30.10,NE,55,12.0,17.0,84,0.00,,---,0.00,VWS V14.01,2013-09-29 03:31:00,
2013-09-28 23:36:00,66.3,61.7,30.10,ENE,64,14.0,18.0,85,0.00,,---,0.00,VWS V14.01,2013-09-29 03:36:00,
2013-09-28 23:41:00,66.2,61.9,30.10,NE,46,13.0,18.0,86,0.00,,---,0.00,VWS V14.01,2013-09-29 03:41:00,
2013-09-28 23:46:00,66.3,62.0,30.10,NE,49,11.0,18.0,86,0.00,,---,0.00,VWS V14.01,2013-09-29 03:46:00,
2013-09-28 23:51:00,66.1,61.8,30.10,NE,55,9.0,18.0,86,0.00,,---,0.00,VWS V14.01,2013-09-29 03:51:00,
2013-09-28 23:56:00,66.1,61.8,30.10,ENE,76,12.0,19.0,86,0.00,,---,0.00,VWS V14.01,2013-09-29 03:56:00,